createdAt,value
2018-02-14T00:00:20.848Z,-0.90
2018-02-14T00:02:48.304Z,-1.10
2018-02-14T00:05:16.136Z,-1.30
2018-02-14T00:07:44.356Z,-1.00
2018-02-14T00:10:11.818Z,-1.10
2018-02-14T00:12:39.268Z,-0.80
2018-02-14T00:15:06.723Z,-1.20
2018-02-14T00:17:34.163Z,-1.10
2018-02-14T00:20:02.388Z,-1.30
2018-02-14T00:22:29.845Z,-1.40
2018-02-14T00:24:57.297Z,-1.30
2018-02-14T00:27:24.753Z,-1.20
2018-02-14T00:29:52.209Z,-1.00
2018-02-14T00:32:19.665Z,-1.10
2018-02-14T00:34:47.144Z,-1.40
2018-02-14T00:37:14.601Z,-1.50
2018-02-14T00:39:42.057Z,-1.60
2018-02-14T00:42:09.512Z,-1.60
2018-02-14T00:44:36.972Z,-1.50
2018-02-14T00:47:05.223Z,-1.50
2018-02-14T00:49:32.660Z,-1.50
2018-02-14T00:52:00.129Z,-1.30
2018-02-14T00:54:27.629Z,-1.10
2018-02-14T00:56:55.058Z,-0.90
2018-02-14T00:59:22.516Z,-0.90
2018-02-14T01:01:49.983Z,-0.90
2018-02-14T01:04:17.437Z,-1.20
2018-02-14T01:06:45.659Z,-1.00
2018-02-14T01:09:13.881Z,-0.90
2018-02-14T01:11:41.344Z,-0.90
2018-02-14T01:14:08.799Z,-0.90
2018-02-14T01:16:36.264Z,-1.40
2018-02-14T01:19:09.359Z,-1.70
2018-02-14T01:21:36.893Z,-1.90
2018-02-14T01:24:04.354Z,-2.00
2018-02-14T01:26:32.584Z,-2.10
2018-02-14T01:29:00.044Z,-2.20
2018-02-14T01:31:27.497Z,-1.90
2018-02-14T01:33:54.957Z,-1.80
2018-02-14T01:36:22.413Z,-1.60
2018-02-14T01:38:49.868Z,-1.60
2018-02-14T01:41:17.336Z,-1.80
2018-02-14T01:43:44.799Z,-2.00
2018-02-14T01:46:12.272Z,-2.00
2018-02-14T01:48:39.724Z,-2.00
2018-02-14T01:51:07.179Z,-2.00
2018-02-14T01:53:34.655Z,-2.10
2018-02-14T01:56:02.106Z,-2.10
2018-02-14T01:58:29.564Z,-2.00
2018-02-14T02:00:57.025Z,-2.00
2018-02-14T02:03:24.488Z,-1.90
2018-02-14T02:05:51.952Z,-1.90
2018-02-14T02:10:53.120Z,-2.00
2018-02-14T02:13:20.570Z,-2.10
2018-02-14T02:15:48.010Z,-2.20
2018-02-14T02:18:16.272Z,-2.20
2018-02-14T02:20:43.685Z,-2.20
2018-02-14T02:23:11.173Z,-2.20
2018-02-14T02:25:38.634Z,-2.30
2018-02-14T02:28:06.093Z,-2.30
2018-02-14T02:30:33.557Z,-2.40
2018-02-14T02:33:01.024Z,-2.40
2018-02-14T02:35:28.486Z,-2.30
2018-02-14T02:37:55.957Z,-2.30
2018-02-14T02:40:30.184Z,-2.50
2018-02-14T02:42:57.657Z,-2.40
2018-02-14T02:45:25.112Z,-2.30
2018-02-14T02:47:52.577Z,-2.30
2018-02-14T02:50:20.045Z,-2.30
2018-02-14T02:52:47.533Z,-2.30
2018-02-14T02:55:15.763Z,-2.50
2018-02-14T02:57:44.736Z,-2.70
2018-02-14T03:00:12.652Z,-2.70
2018-02-14T03:02:40.882Z,-2.70
2018-02-14T03:05:08.346Z,-2.80
2018-02-14T03:07:35.801Z,-2.60
2018-02-14T03:10:03.264Z,-2.50
2018-02-14T03:12:31.486Z,-2.20
2018-02-14T03:14:59.724Z,-2.20
2018-02-14T03:17:27.179Z,-2.20
2018-02-14T03:19:54.651Z,-2.10
2018-02-14T03:22:22.107Z,-2.10
2018-02-14T03:24:49.559Z,-2.30
2018-02-14T03:27:17.025Z,-2.40
2018-02-14T03:29:44.503Z,-2.70
2018-02-14T03:32:11.961Z,-2.90
2018-02-14T03:34:40.189Z,-2.80
2018-02-14T03:37:08.408Z,-2.80
2018-02-14T03:39:35.869Z,-2.80
2018-02-14T03:42:03.331Z,-2.90
2018-02-14T03:44:30.804Z,-2.90
2018-02-14T03:46:58.262Z,-2.90
2018-02-14T03:49:25.733Z,-3.00
2018-02-14T03:51:53.191Z,-2.90
2018-02-14T03:54:20.660Z,-3.00
2018-02-14T03:56:48.121Z,-3.10
2018-02-14T03:59:15.602Z,-3.30
2018-02-14T04:01:43.053Z,-3.10
2018-02-14T04:04:10.512Z,-3.00
2018-02-14T04:06:37.972Z,-3.00
2018-02-14T04:09:05.423Z,-3.00
2018-02-14T04:11:32.893Z,-3.00
2018-02-14T04:14:00.352Z,-2.80
2018-02-14T04:16:27.820Z,-2.70
2018-02-14T04:18:55.284Z,-2.80
2018-02-14T04:21:22.748Z,-2.60
2018-02-14T04:23:50.222Z,-2.70
2018-02-14T04:26:17.697Z,-2.90
2018-02-14T04:28:45.146Z,-3.10
2018-02-14T04:31:13.372Z,-3.00
2018-02-14T04:33:40.838Z,-3.10
2018-02-14T04:36:08.317Z,-2.90
2018-02-14T04:38:35.776Z,-2.80
2018-02-14T04:41:03.236Z,-2.60
2018-02-14T04:43:30.689Z,-2.50
2018-02-14T04:45:58.148Z,-2.40
2018-02-14T04:48:25.613Z,-2.40
2018-02-14T04:50:53.077Z,-2.60
2018-02-14T04:53:20.524Z,-2.80
2018-02-14T04:55:48.770Z,-3.00
2018-02-14T04:58:16.234Z,-3.00
2018-02-14T05:00:44.457Z,-3.20
2018-02-14T05:03:11.936Z,-3.20
2018-02-14T05:05:40.138Z,-3.20
2018-02-14T05:08:07.607Z,-3.30
2018-02-14T05:10:35.076Z,-3.20
2018-02-14T05:13:02.552Z,-3.20
2018-02-14T05:15:30.000Z,-3.30
2018-02-14T05:17:57.478Z,-3.10
2018-02-14T05:20:24.937Z,-3.20
2018-02-14T05:22:52.397Z,-3.50
2018-02-14T05:25:19.853Z,-3.70
2018-02-14T05:27:47.312Z,-3.60
2018-02-14T05:30:14.776Z,-3.30
2018-02-14T05:32:42.246Z,-3.30
2018-02-14T05:35:09.696Z,-3.30
2018-02-14T05:37:37.182Z,-3.60
2018-02-14T05:40:04.628Z,-3.50
2018-02-14T05:42:32.100Z,-3.20
2018-02-14T05:44:59.548Z,-3.10
2018-02-14T05:47:27.020Z,-3.10
2018-02-14T05:49:54.474Z,-3.30
2018-02-14T05:52:21.950Z,-3.70
2018-02-14T05:54:49.405Z,-3.60
2018-02-14T05:57:16.870Z,-3.50
2018-02-14T05:59:44.333Z,-3.40
2018-02-14T06:02:11.798Z,-3.40
2018-02-14T06:04:39.261Z,-3.70
2018-02-14T06:07:06.713Z,-3.80
2018-02-14T06:09:34.190Z,-3.90
2018-02-14T06:12:01.672Z,-3.90
2018-02-14T06:14:29.890Z,-4.00
2018-02-14T06:16:57.352Z,-4.00
2018-02-14T06:19:24.831Z,-3.90
2018-02-14T06:21:52.292Z,-3.90
2018-02-14T06:24:19.754Z,-3.90
2018-02-14T06:26:47.216Z,-4.10
2018-02-14T06:29:15.441Z,-4.20
2018-02-14T06:31:43.668Z,-4.20
2018-02-14T06:34:11.126Z,-4.20
2018-02-14T06:36:38.584Z,-4.20
2018-02-14T06:39:06.069Z,-4.20
2018-02-14T06:41:33.529Z,-4.10
2018-02-14T06:44:01.014Z,-4.00
2018-02-14T06:46:28.489Z,-3.80
2018-02-14T06:48:56.707Z,-4.20
2018-02-14T06:51:24.170Z,-4.20
2018-02-14T06:53:51.637Z,-4.10
2018-02-14T06:56:19.107Z,-4.10
2018-02-14T06:58:46.584Z,-4.00
2018-02-14T07:01:14.032Z,-4.10
2018-02-14T07:03:41.497Z,-4.10
2018-02-14T07:06:08.965Z,-3.90
2018-02-14T07:08:36.425Z,-3.90
2018-02-14T07:11:03.892Z,-4.00
2018-02-14T07:13:31.349Z,-3.90
2018-02-14T07:15:58.805Z,-4.00
2018-02-14T07:18:26.282Z,-3.90
2018-02-14T07:20:53.747Z,-3.80
2018-02-14T07:23:26.914Z,-3.90
2018-02-14T07:25:54.376Z,-3.80
2018-02-14T07:28:21.835Z,-3.70
2018-02-14T07:30:49.297Z,-3.80
2018-02-14T07:33:16.773Z,-3.90
2018-02-14T07:35:44.244Z,-3.90
2018-02-14T07:38:11.705Z,-3.80
2018-02-14T07:40:39.169Z,-3.70
2018-02-14T07:43:06.629Z,-3.60
2018-02-14T07:45:34.094Z,-3.40
2018-02-14T07:48:01.545Z,-3.30
2018-02-14T07:50:29.007Z,-3.50
2018-02-14T07:52:56.469Z,-3.40
2018-02-14T07:55:23.941Z,-3.30
2018-02-14T07:57:51.405Z,-3.20
2018-02-14T08:00:18.887Z,-3.10
2018-02-14T08:02:47.118Z,-2.90
2018-02-14T08:05:14.585Z,-3.00
2018-02-14T08:07:42.073Z,-2.90
2018-02-14T08:10:09.535Z,-2.90
2018-02-14T08:12:37.000Z,-2.90
2018-02-14T08:15:04.474Z,-2.90
2018-02-14T08:17:31.935Z,-2.80
2018-02-14T08:19:59.388Z,-2.70
2018-02-14T08:22:26.856Z,-2.70
2018-02-14T08:24:54.322Z,-2.70
2018-02-14T08:27:22.545Z,-2.50
2018-02-14T08:29:50.778Z,-2.50
2018-02-14T08:32:18.259Z,-2.50
2018-02-14T08:34:45.708Z,-2.40
2018-02-14T08:37:13.171Z,-2.50
2018-02-14T08:39:40.624Z,-2.50
2018-02-14T08:42:08.096Z,-2.50
2018-02-14T08:44:35.565Z,-2.40
2018-02-14T08:47:03.026Z,-2.20
2018-02-14T08:49:30.487Z,-2.20
2018-02-14T08:51:57.956Z,-2.10
2018-02-14T08:54:25.408Z,-2.20
2018-02-14T08:56:52.881Z,-2.10
2018-02-14T08:59:20.344Z,-2.00
2018-02-14T09:01:47.805Z,-2.00
2018-02-14T09:04:15.262Z,-1.90
2018-02-14T09:06:42.779Z,-1.80
2018-02-14T09:09:10.225Z,-1.90
2018-02-14T09:11:38.456Z,-1.70
2018-02-14T09:14:05.908Z,-1.80
2018-02-14T09:16:33.374Z,-1.60
2018-02-14T09:19:01.606Z,-1.50
2018-02-14T09:21:29.833Z,-1.50
2018-02-14T09:23:57.292Z,-1.50
2018-02-14T09:26:24.836Z,-1.40
2018-02-14T09:28:52.399Z,-1.30
2018-02-14T09:31:19.909Z,-1.30
2018-02-14T09:33:47.297Z,-1.30
2018-02-14T09:36:15.538Z,-1.10
2018-02-14T09:38:42.993Z,-1.20
2018-02-14T09:41:10.456Z,-1.10
2018-02-14T09:43:37.912Z,-1.10
2018-02-14T09:46:05.388Z,-1.00
2018-02-14T09:48:32.847Z,-0.90
2018-02-14T09:51:00.316Z,-0.80
2018-02-14T09:53:27.781Z,-0.80
2018-02-14T09:55:55.252Z,-0.80
2018-02-14T09:58:22.708Z,-0.80
2018-02-14T10:00:50.157Z,-0.80
2018-02-14T10:03:17.616Z,-0.80
2018-02-14T10:05:45.076Z,-0.80
2018-02-14T10:08:12.528Z,-0.60
2018-02-14T10:10:39.980Z,-0.60
2018-02-14T10:13:07.444Z,-0.50
2018-02-14T10:15:34.903Z,-0.50
2018-02-14T10:18:02.407Z,-0.40
2018-02-14T10:20:29.811Z,-0.40
2018-02-14T10:22:58.033Z,-0.10
2018-02-14T10:25:25.484Z,-0.20
2018-02-14T10:27:52.952Z,-0.10
2018-02-14T10:30:20.401Z,0.00
2018-02-14T10:32:47.860Z,0.00
2018-02-14T10:35:15.317Z,0.30
2018-02-14T10:37:42.776Z,0.10
2018-02-14T10:40:10.226Z,0.00
2018-02-14T10:42:38.446Z,0.10
2018-02-14T10:45:05.885Z,0.10
2018-02-14T10:47:33.348Z,0.10
2018-02-14T10:50:00.811Z,0.20
2018-02-14T10:52:28.249Z,0.30
2018-02-14T10:54:56.462Z,0.40
2018-02-14T10:57:23.924Z,0.40
2018-02-14T10:59:51.374Z,0.60
2018-02-14T11:02:18.852Z,0.70
2018-02-14T11:04:52.028Z,0.80
2018-02-14T11:07:19.486Z,0.70
2018-02-14T11:09:46.935Z,0.80
2018-02-14T11:12:15.165Z,0.70
2018-02-14T11:14:42.633Z,0.70
2018-02-14T11:17:10.092Z,0.80
2018-02-14T11:19:37.575Z,0.70
2018-02-14T11:22:05.016Z,0.80
2018-02-14T11:24:32.468Z,0.90
2018-02-14T11:26:59.920Z,1.10
2018-02-14T11:29:27.372Z,1.20
2018-02-14T11:34:29.580Z,1.20
2018-02-14T11:36:57.024Z,1.20
2018-02-14T11:39:24.511Z,1.10
2018-02-14T11:41:51.957Z,1.20
2018-02-14T11:44:19.421Z,1.30
2018-02-14T11:46:46.877Z,1.30
2018-02-14T11:49:14.337Z,1.40
2018-02-14T11:51:41.816Z,1.40
2018-02-14T11:54:09.279Z,1.40
2018-02-14T11:56:36.728Z,1.60
2018-02-14T11:59:04.188Z,1.80
2018-02-14T12:01:31.645Z,1.80
2018-02-14T12:03:59.110Z,1.80
2018-02-14T12:06:26.569Z,1.80
2018-02-14T12:08:54.031Z,1.70
2018-02-14T12:11:21.584Z,1.70
2018-02-14T12:13:49.040Z,1.90
2018-02-14T12:16:17.262Z,1.90
2018-02-14T12:18:44.725Z,1.90
2018-02-14T12:21:12.165Z,2.00
2018-02-14T12:23:39.630Z,2.20
2018-02-14T12:26:07.076Z,2.30
2018-02-14T12:28:34.527Z,2.30
2018-02-14T12:31:02.760Z,2.30
2018-02-14T12:33:30.212Z,2.20
2018-02-14T12:35:57.675Z,2.30
2018-02-14T12:38:25.112Z,2.50
2018-02-14T12:40:52.572Z,2.30
2018-02-14T12:43:20.015Z,2.20
2018-02-14T12:45:48.240Z,2.30
2018-02-14T12:48:15.690Z,2.30
2018-02-14T12:50:43.170Z,2.50
2018-02-14T12:53:10.617Z,2.50
2018-02-14T12:55:38.078Z,2.70
2018-02-14T12:58:05.531Z,3.10
2018-02-14T13:00:32.992Z,2.90
2018-02-14T13:03:00.433Z,2.70
2018-02-14T13:05:28.661Z,2.80
2018-02-14T13:07:56.109Z,2.90
2018-02-14T13:10:23.569Z,2.90
2018-02-14T13:12:51.026Z,3.10
2018-02-14T13:15:18.492Z,3.20
2018-02-14T13:17:45.947Z,2.90
2018-02-14T13:20:13.407Z,3.00
2018-02-14T13:22:40.847Z,2.90
2018-02-14T13:25:09.073Z,3.30
2018-02-14T13:27:36.522Z,3.20
2018-02-14T13:30:03.972Z,3.40
2018-02-14T13:32:31.426Z,3.50
2018-02-14T13:34:58.883Z,3.60
2018-02-14T13:37:27.113Z,3.60
2018-02-14T13:39:54.584Z,3.60
2018-02-14T13:42:22.033Z,3.70
2018-02-14T13:44:49.493Z,3.80
2018-02-14T13:47:16.956Z,3.80
2018-02-14T13:49:45.176Z,4.00
2018-02-14T13:52:13.395Z,4.00
2018-02-14T13:54:40.841Z,4.00
2018-02-14T13:57:08.309Z,4.20
2018-02-14T13:59:35.771Z,4.10
2018-02-14T14:02:03.228Z,4.10
2018-02-14T14:04:30.699Z,3.90
2018-02-14T14:06:58.132Z,3.90
2018-02-14T14:09:26.344Z,4.10
2018-02-14T14:11:53.804Z,4.10
2018-02-14T14:14:21.249Z,4.20
2018-02-14T14:16:48.699Z,4.40
2018-02-14T14:19:16.913Z,4.40
2018-02-14T14:21:44.370Z,4.40
2018-02-14T14:24:11.818Z,4.30
2018-02-14T14:26:39.282Z,4.40
2018-02-14T14:29:06.727Z,4.60
2018-02-14T14:31:34.944Z,4.60
2018-02-14T14:34:02.420Z,4.60
2018-02-14T14:36:29.873Z,4.60
2018-02-14T14:38:57.325Z,4.70
2018-02-14T14:41:24.788Z,4.70
2018-02-14T14:43:52.241Z,4.70
2018-02-14T14:46:19.695Z,5.10
2018-02-14T14:48:47.914Z,5.40
2018-02-14T14:51:15.389Z,5.40
2018-02-14T14:53:42.838Z,5.20
2018-02-14T14:56:10.284Z,5.20
2018-02-14T14:58:37.788Z,5.20
2018-02-14T15:01:05.202Z,5.30
2018-02-14T15:03:32.661Z,5.10
2018-02-14T15:06:00.109Z,5.00
2018-02-14T15:08:27.559Z,4.90
2018-02-14T15:10:55.781Z,5.20
2018-02-14T15:13:23.253Z,5.10
2018-02-14T15:15:50.708Z,5.00
2018-02-14T15:18:18.170Z,5.10
2018-02-14T15:20:45.624Z,5.00
2018-02-14T15:23:13.900Z,5.40
2018-02-14T15:25:41.459Z,5.40
2018-02-14T15:28:08.924Z,5.10
2018-02-14T15:30:36.386Z,4.70
2018-02-14T15:33:03.850Z,5.00
2018-02-14T15:35:31.296Z,5.10
2018-02-14T15:37:58.760Z,5.30
2018-02-14T15:40:26.220Z,5.50
2018-02-14T15:42:54.441Z,4.80
2018-02-14T15:45:21.894Z,4.70
2018-02-14T15:47:49.394Z,5.10
2018-02-14T15:50:16.848Z,5.30
2018-02-14T15:52:45.069Z,4.80
2018-02-14T15:55:12.518Z,4.80
2018-02-14T15:57:40.754Z,5.00
2018-02-14T16:00:08.200Z,4.90
2018-02-14T16:02:35.696Z,4.90
2018-02-14T16:05:03.149Z,4.80
2018-02-14T16:07:30.600Z,5.00
2018-02-14T16:09:58.056Z,4.90
2018-02-14T16:12:25.521Z,4.90
2018-02-14T16:14:52.989Z,4.70
2018-02-14T16:17:20.443Z,4.60
2018-02-14T16:19:47.905Z,4.70
2018-02-14T16:22:15.360Z,4.70
2018-02-14T16:24:42.827Z,4.60
2018-02-14T16:27:10.302Z,4.50
2018-02-14T16:29:37.770Z,4.30
2018-02-14T16:32:05.221Z,4.20
2018-02-14T16:34:32.680Z,4.30
2018-02-14T16:37:00.914Z,3.90
2018-02-14T16:39:29.141Z,3.80
2018-02-14T16:41:56.614Z,3.80
2018-02-14T16:44:24.080Z,3.80
2018-02-14T16:46:51.573Z,3.60
2018-02-14T16:49:19.012Z,3.60
2018-02-14T16:51:46.469Z,3.50
2018-02-14T16:54:13.939Z,3.40
2018-02-14T16:56:41.395Z,3.30
2018-02-14T16:59:08.868Z,3.20
2018-02-14T17:01:36.324Z,3.30
2018-02-14T17:04:03.793Z,3.20
2018-02-14T17:06:31.253Z,3.10
2018-02-14T17:08:58.709Z,3.10
2018-02-14T17:11:26.172Z,3.00
2018-02-14T17:13:53.636Z,2.80
2018-02-14T17:16:21.094Z,2.70
2018-02-14T17:18:48.565Z,2.60
2018-02-14T17:21:16.028Z,2.60
2018-02-14T17:23:43.486Z,2.50
2018-02-14T17:26:10.953Z,2.40
2018-02-14T17:28:38.391Z,2.40
2018-02-14T17:31:05.860Z,2.30
2018-02-14T17:33:33.320Z,2.20
2018-02-14T17:36:00.781Z,2.10
2018-02-14T17:38:28.238Z,1.90
2018-02-14T17:40:55.704Z,1.80
2018-02-14T17:43:23.169Z,1.80
2018-02-14T17:45:50.641Z,1.80
2018-02-14T17:48:18.096Z,1.70
2018-02-14T17:50:45.556Z,1.70
2018-02-14T17:53:13.033Z,1.70
2018-02-14T17:55:40.505Z,1.50
2018-02-14T17:58:07.969Z,1.40
2018-02-14T18:00:35.424Z,1.30
2018-02-14T18:03:03.661Z,1.30
2018-02-14T18:05:31.121Z,1.20
2018-02-14T18:07:58.590Z,1.20
2018-02-14T18:10:26.068Z,1.20
2018-02-14T18:12:53.519Z,1.10
2018-02-14T18:15:20.991Z,1.10
2018-02-14T18:17:48.457Z,1.10
2018-02-14T18:20:15.922Z,1.00
2018-02-14T18:22:43.379Z,1.00
2018-02-14T18:25:10.839Z,1.10
2018-02-14T18:27:38.304Z,1.00
2018-02-14T18:30:05.770Z,1.00
2018-02-14T18:32:33.232Z,0.90
2018-02-14T18:35:00.680Z,0.80
2018-02-14T18:37:28.136Z,0.80
2018-02-14T18:39:55.593Z,1.10
2018-02-14T18:42:23.056Z,1.30
2018-02-14T18:44:51.314Z,1.10
2018-02-14T18:47:18.806Z,1.10
2018-02-14T18:49:46.254Z,1.10
2018-02-14T18:52:13.735Z,0.80
2018-02-14T18:54:41.189Z,0.60
2018-02-14T18:57:08.654Z,0.60
2018-02-14T18:59:36.118Z,0.80
2018-02-14T19:02:03.586Z,0.60
2018-02-14T19:04:31.049Z,0.60
2018-02-14T19:06:58.508Z,0.80
2018-02-14T19:09:26.064Z,0.70
2018-02-14T19:11:53.528Z,0.80
2018-02-14T19:14:20.988Z,1.00
2018-02-14T19:16:48.449Z,1.00
2018-02-14T19:19:15.912Z,0.70
2018-02-14T19:21:43.364Z,0.60
2018-02-14T19:24:10.825Z,0.70
2018-02-14T19:26:38.277Z,0.40
2018-02-14T19:29:06.504Z,0.40
2018-02-14T19:31:33.953Z,0.30
2018-02-14T19:34:01.417Z,0.40
2018-02-14T19:36:28.871Z,0.50
2018-02-14T19:38:56.371Z,0.50
2018-02-14T19:41:23.823Z,0.70
2018-02-14T19:43:52.048Z,0.60
2018-02-14T19:46:20.260Z,0.50
2018-02-14T19:48:47.724Z,0.50
2018-02-14T19:51:15.176Z,0.40
2018-02-14T19:53:42.637Z,0.40
2018-02-14T19:56:10.096Z,0.30
2018-02-14T19:58:37.555Z,0.40
2018-02-14T20:01:05.009Z,0.40
2018-02-14T20:03:33.228Z,0.40
2018-02-14T20:06:00.677Z,0.30
2018-02-14T20:08:28.136Z,0.30
2018-02-14T20:10:55.592Z,0.30
2018-02-14T20:13:23.050Z,0.30
2018-02-14T20:15:50.490Z,0.60
2018-02-14T20:18:18.716Z,0.40
2018-02-14T20:20:46.168Z,0.40
2018-02-14T20:23:13.620Z,0.30
2018-02-14T20:25:41.072Z,0.20
2018-02-14T20:28:08.520Z,0.40
2018-02-14T20:30:36.745Z,0.30
2018-02-14T20:33:04.188Z,0.30
2018-02-14T20:35:31.648Z,0.30
2018-02-14T20:37:59.096Z,0.30
2018-02-14T20:40:26.546Z,0.30
2018-02-14T20:42:54.768Z,0.20
2018-02-14T20:45:22.229Z,0.20
2018-02-14T20:47:49.688Z,0.20
2018-02-14T20:50:17.152Z,0.40
2018-02-14T20:52:44.600Z,0.30
2018-02-14T20:55:12.066Z,0.30
2018-02-14T20:57:39.521Z,0.30
2018-02-14T21:00:06.990Z,0.30
2018-02-14T21:02:34.437Z,0.30
2018-02-14T21:05:01.897Z,0.10
2018-02-14T21:07:29.341Z,0.10
2018-02-14T21:09:57.569Z,0.10
2018-02-14T21:12:25.013Z,0.10
2018-02-14T21:14:52.477Z,0.10
2018-02-14T21:17:19.935Z,0.10
2018-02-14T21:19:47.405Z,0.10
2018-02-14T21:22:14.858Z,0.00
2018-02-14T21:24:42.313Z,-0.10
2018-02-14T21:27:09.769Z,0.00
2018-02-14T21:29:37.981Z,0.20
2018-02-14T21:32:05.434Z,0.20
2018-02-14T21:34:32.914Z,0.20
2018-02-14T21:37:00.352Z,0.20
2018-02-14T21:39:27.810Z,0.20
2018-02-14T21:41:55.264Z,0.10
2018-02-14T21:44:23.481Z,0.20
2018-02-14T21:46:50.950Z,0.10
2018-02-14T21:49:19.159Z,0.30
2018-02-14T21:51:46.624Z,0.30
2018-02-14T21:54:14.095Z,0.30
2018-02-14T21:56:42.328Z,0.50
2018-02-14T21:59:09.768Z,0.40
2018-02-14T22:01:37.233Z,0.50
2018-02-14T22:04:04.692Z,0.50
2018-02-14T22:06:32.154Z,0.40
2018-02-14T22:08:59.633Z,0.30
2018-02-14T22:11:27.083Z,0.30
2018-02-14T22:13:54.540Z,0.30
2018-02-14T22:16:22.021Z,0.40
2018-02-14T22:18:49.480Z,0.40
2018-02-14T22:21:16.946Z,0.50
2018-02-14T22:23:44.392Z,0.70
2018-02-14T22:26:11.865Z,0.70
2018-02-14T22:28:39.316Z,0.60
2018-02-14T22:31:06.781Z,0.60
2018-02-14T22:33:34.250Z,0.70
2018-02-14T22:36:01.704Z,0.80
2018-02-14T22:38:29.153Z,1.00
2018-02-14T22:40:56.629Z,0.90
2018-02-14T22:43:24.082Z,0.70
2018-02-14T22:45:51.537Z,0.60
2018-02-14T22:48:19.004Z,0.60
2018-02-14T22:50:46.460Z,0.60
2018-02-14T22:53:14.685Z,0.60
2018-02-14T22:55:42.146Z,0.60
2018-02-14T22:58:09.606Z,0.70
2018-02-14T23:00:37.061Z,0.80
2018-02-14T23:03:04.528Z,0.90
2018-02-14T23:05:31.980Z,0.80
2018-02-14T23:08:00.199Z,0.80
2018-02-14T23:10:27.653Z,0.80
2018-02-14T23:12:55.149Z,1.00
2018-02-14T23:15:22.598Z,1.00
2018-02-14T23:17:50.065Z,1.00
2018-02-14T23:20:17.520Z,1.10
2018-02-14T23:22:44.981Z,0.90
2018-02-14T23:25:13.312Z,0.80
2018-02-14T23:27:41.537Z,0.90
2018-02-14T23:30:12.830Z,0.80
2018-02-14T23:32:41.065Z,1.10
2018-02-14T23:35:08.508Z,1.00
2018-02-14T23:37:35.968Z,1.10
2018-02-14T23:40:03.439Z,1.10
2018-02-14T23:42:30.876Z,1.10
2018-02-14T23:44:58.327Z,1.10
2018-02-14T23:47:26.565Z,1.00
2018-02-14T23:49:54.022Z,1.00
2018-02-14T23:52:21.486Z,1.00
2018-02-14T23:54:48.949Z,1.00
2018-02-14T23:57:16.396Z,1.00
2018-02-14T23:59:43.852Z,0.90
